ARG1719 SAAR-SABE
Flight info
| Callsign | ARG1719 |
|---|---|
| Flight time | N/A |
| Altitude | 25000 |
| Route | VASAL2G VASAL DCT SNT SNT8Q |
| Aircraft | E190/M-SDE3GILORVW/S |
Departure
| Time | 2026-05-05 18:31 |
|---|---|
| Airport | Rosario Islas Malvinas International Airport (SAAR) |
Arrival
| Time | N/A |
|---|---|
| Airport | Aeroparque Jorge Newbery (SABE) |
| Time | Latitude | Longitude | Altitude | Speed | Heading |
|---|---|---|---|---|---|
| 2026-05-05 18:24 | -32.91658 | -60.78224 | 95 ft | 4 kts | 111° |
| 2026-05-05 18:25 | -32.91656 | -60.78258 | 94 ft | 5 kts | 29° |
| 2026-05-05 18:25 | -32.91664 | -60.78263 | 96 ft | 0 kts | 18° |
| 2026-05-05 18:26 | -32.91655 | -60.78259 | 94 ft | 4 kts | 18° |
| 2026-05-05 18:26 | -32.91606 | -60.78237 | 97 ft | 11 kts | 21° |
| 2026-05-05 18:26 | -32.91513 | -60.78195 | 96 ft | 18 kts | 21° |
| 2026-05-05 18:26 | -32.91377 | -60.78202 | 94 ft | 24 kts | 324° |
| 2026-05-05 18:27 | -32.91226 | -60.78347 | 94 ft | 32 kts | 321° |
| 2026-05-05 18:27 | -32.91020 | -60.78514 | 96 ft | 38 kts | 338° |
| 2026-05-05 18:27 | -32.90773 | -60.78563 | 97 ft | 37 kts | 10° |
| 2026-05-05 18:27 | -32.90519 | -60.78503 | 96 ft | 37 kts | 11° |
| 2026-05-05 18:28 | -32.90006 | -60.78388 | 94 ft | 37 kts | 11° |
| 2026-05-05 18:28 | -32.89759 | -60.78335 | 97 ft | 36 kts | 10° |
| 2026-05-05 18:28 | -32.89513 | -60.78280 | 98 ft | 36 kts | 11° |
| 2026-05-05 18:29 | -32.89276 | -60.78225 | 96 ft | 18 kts | 11° |
| 2026-05-05 18:29 | -32.89152 | -60.78190 | 96 ft | 20 kts | 26° |
| 2026-05-05 18:29 | -32.89049 | -60.78137 | 95 ft | 8 kts | 307° |
| 2026-05-05 18:29 | -32.89080 | -60.78178 | 98 ft | 7 kts | 193° |
| 2026-05-05 18:30 | -32.89083 | -60.78179 | 98 ft | 0 kts | 194° |
| 2026-05-05 18:31 | -32.89391 | -60.78250 | 97 ft | 88 kts | 191° |
| 2026-05-05 18:31 | -32.90254 | -60.78457 | 96 ft | 163 kts | 191° |
| 2026-05-05 18:31 | -32.91480 | -60.78736 | 800 ft | 194 kts | 189° |
| 2026-05-05 18:32 | -32.92894 | -60.79039 | 1711 ft | 212 kts | 190° |
| 2026-05-05 18:32 | -32.94349 | -60.79375 | 2967 ft | 220 kts | 193° |
| 2026-05-05 18:32 | -32.95846 | -60.79716 | 4126 ft | 219 kts | 191° |
| 2026-05-05 18:32 | -32.97365 | -60.80028 | 5116 ft | 225 kts | 194° |
| 2026-05-05 18:33 | -32.98954 | -60.80334 | 5903 ft | 241 kts | 188° |
| 2026-05-05 18:33 | -33.00702 | -60.80303 | 6563 ft | 263 kts | 172° |
| 2026-05-05 18:33 | -33.02490 | -60.79594 | 7258 ft | 279 kts | 155° |
| 2026-05-05 18:33 | -33.04194 | -60.78462 | 8196 ft | 282 kts | 147° |
| 2026-05-05 18:34 | -33.05748 | -60.77006 | 9138 ft | 286 kts | 140° |
| 2026-05-05 18:34 | -33.07261 | -60.75452 | 10046 ft | 290 kts | 140° |
| 2026-05-05 18:34 | -33.08811 | -60.73866 | 10722 ft | 302 kts | 140° |
| 2026-05-05 18:34 | -33.10466 | -60.72175 | 11125 ft | 324 kts | 140° |
| 2026-05-05 18:35 | -33.12220 | -60.70372 | 11610 ft | 341 kts | 141° |
| 2026-05-05 18:35 | -33.14052 | -60.68487 | 12219 ft | 352 kts | 141° |
| 2026-05-05 18:35 | -33.15919 | -60.66565 | 13057 ft | 356 kts | 141° |
| 2026-05-05 18:35 | -33.17806 | -60.64623 | 13903 ft | 360 kts | 141° |
| 2026-05-05 18:36 | -33.19717 | -60.62657 | 14666 ft | 365 kts | 141° |
| 2026-05-05 18:36 | -33.21653 | -60.60661 | 15408 ft | 370 kts | 141° |
| 2026-05-05 18:36 | -33.23615 | -60.58639 | 16114 ft | 375 kts | 141° |
| 2026-05-05 18:36 | -33.25600 | -60.56591 | 16764 ft | 380 kts | 141° |
| 2026-05-05 18:37 | -33.27613 | -60.54514 | 17415 ft | 385 kts | 141° |
| 2026-05-05 18:37 | -33.29649 | -60.52408 | 18065 ft | 389 kts | 141° |
| 2026-05-05 18:37 | -33.31719 | -60.50293 | 18655 ft | 393 kts | 142° |
| 2026-05-05 18:37 | -33.33777 | -60.48107 | 19220 ft | 398 kts | 139° |
| 2026-05-05 18:38 | -33.35781 | -60.45809 | 19823 ft | 402 kts | 139° |
| 2026-05-05 18:38 | -33.37783 | -60.43499 | 20430 ft | 406 kts | 139° |
| 2026-05-05 18:38 | -33.39847 | -60.41104 | 21041 ft | 410 kts | 139° |
| 2026-05-05 18:38 | -33.41899 | -60.38719 | 21613 ft | 414 kts | 139° |
| 2026-05-05 18:39 | -33.43977 | -60.36306 | 22158 ft | 418 kts | 140° |
| 2026-05-05 18:39 | -33.46068 | -60.33874 | 22683 ft | 421 kts | 140° |
| 2026-05-05 18:39 | -33.48155 | -60.31445 | 23183 ft | 425 kts | 140° |
| 2026-05-05 18:39 | -33.50284 | -60.28967 | 23642 ft | 428 kts | 140° |
| 2026-05-05 18:40 | -33.52428 | -60.26469 | 24046 ft | 431 kts | 140° |
| 2026-05-05 18:40 | -33.54588 | -60.23949 | 24447 ft | 435 kts | 140° |
| 2026-05-05 18:40 | -33.56763 | -60.21412 | 24784 ft | 434 kts | 140° |
| 2026-05-05 18:40 | -33.58923 | -60.18890 | 24874 ft | 436 kts | 140° |